createdAt,value
2019-04-24T00:01:16.369Z,17.71
2019-04-24T00:02:30.935Z,17.76
2019-04-24T00:03:18.144Z,17.76
2019-04-24T00:05:32.514Z,18.03
2019-04-24T00:07:07.498Z,18.49
2019-04-24T00:09:23.525Z,18.77
2019-04-24T00:10:20.514Z,18.86
2019-04-24T00:12:20.816Z,18.84
2019-04-24T00:13:21.008Z,18.82
2019-04-24T00:16:22.526Z,18.84
2019-04-24T00:17:20.528Z,18.91
2019-04-24T00:20:27.425Z,18.52
2019-04-24T00:21:17.166Z,18.49
2019-04-24T00:22:15.494Z,18.59
2019-04-24T00:23:18.544Z,18.68
2019-04-24T00:24:18.567Z,18.86
2019-04-24T00:25:19.424Z,19.06
2019-04-24T00:26:14.904Z,19.15
2019-04-24T00:27:19.722Z,19.24
2019-04-24T00:32:16.763Z,20.00
2019-04-24T00:33:33.512Z,20.00
2019-04-24T00:34:26.240Z,20.02
2019-04-24T00:35:28.228Z,19.84
2019-04-24T00:38:23.143Z,19.38
2019-04-24T00:39:25.272Z,19.31
2019-04-24T00:40:11.884Z,19.20
2019-04-24T00:41:24.164Z,19.23
2019-04-24T00:43:31.387Z,19.36
2019-04-24T00:44:13.606Z,19.35
2019-04-24T00:45:27.726Z,19.23
2019-04-24T00:48:26.809Z,19.17
2019-04-24T00:49:21.611Z,19.06
2019-04-24T00:50:16.440Z,19.06
2019-04-24T00:54:24.465Z,18.98
2019-04-24T00:55:12.369Z,19.01
2019-04-24T00:56:32.481Z,19.21
2019-04-24T00:57:27.831Z,19.33
2019-04-24T00:58:18.509Z,19.32
2019-04-24T01:00:20.561Z,19.28
2019-04-24T01:02:20.396Z,18.97
2019-04-24T01:04:46.588Z,18.76
2019-04-24T01:06:23.494Z,18.79
2019-04-24T01:07:30.571Z,18.95
2019-04-24T01:08:19.177Z,18.95
2019-04-24T01:09:25.083Z,18.82
2019-04-24T01:10:23.332Z,18.90
2019-04-24T01:11:16.608Z,18.79
2019-04-24T01:14:21.051Z,19.01
2019-04-24T01:16:21.538Z,18.90
2019-04-24T01:18:14.596Z,19.11
2019-04-24T01:19:15.903Z,19.15
2019-04-24T01:22:28.761Z,18.97
2019-04-24T01:23:26.927Z,18.94
2019-04-24T01:26:22.257Z,18.83
2019-04-24T01:27:23.577Z,18.83
2019-04-24T01:28:22.507Z,18.83
2019-04-24T01:29:18.770Z,18.84
2019-04-24T01:31:23.172Z,18.84
2019-04-24T01:32:24.747Z,18.87
2019-04-24T01:34:26.877Z,19.18
2019-04-24T01:35:12.875Z,19.28
2019-04-24T01:36:26.753Z,19.28
2019-04-24T01:37:28.264Z,19.28
2019-04-24T01:38:35.785Z,19.23
2019-04-24T01:39:30.472Z,19.24
2019-04-24T01:40:13.524Z,19.33
2019-04-24T01:41:19.098Z,19.24
2019-04-24T01:44:18.717Z,19.08
2019-04-24T01:48:29.932Z,18.86
2019-04-24T01:49:31.099Z,18.87
2019-04-24T01:50:23.851Z,18.73
2019-04-24T01:53:18.289Z,18.54
2019-04-24T01:55:11.564Z,18.28
2019-04-24T01:56:22.725Z,18.03
2019-04-24T01:58:33.306Z,17.73
2019-04-24T02:00:29.349Z,17.43
2019-04-24T02:02:28.257Z,17.47
2019-04-24T02:03:17.850Z,17.50
2019-04-24T02:04:23.949Z,17.48
2019-04-24T02:07:25.151Z,17.70
2019-04-24T02:09:23.431Z,18.21
2019-04-24T02:12:30.606Z,18.57
2019-04-24T02:16:26.366Z,18.70
2019-04-24T02:17:32.441Z,18.52
2019-04-24T02:18:27.860Z,18.43
2019-04-24T02:19:20.636Z,18.34
2019-04-24T02:22:24.179Z,18.13
2019-04-24T02:23:25.431Z,18.00
2019-04-24T02:26:25.163Z,17.71
2019-04-24T02:27:29.479Z,17.67
2019-04-24T02:29:32.808Z,17.36
2019-04-24T02:30:43.762Z,17.22
2019-04-24T02:31:39.213Z,17.28
2019-04-24T02:34:18.445Z,17.13
2019-04-24T02:35:46.907Z,17.03
2019-04-24T02:37:39.780Z,16.93
2019-04-24T02:38:40.021Z,16.95
2019-04-24T02:39:43.326Z,17.11
2019-04-24T02:44:48.307Z,17.57
2019-04-24T02:46:31.340Z,17.97
2019-04-24T02:47:37.001Z,18.13
2019-04-24T02:49:43.137Z,18.37
2019-04-24T02:50:23.219Z,18.43
2019-04-24T02:52:37.839Z,18.00
2019-04-24T02:53:31.396Z,17.81
2019-04-24T02:55:17.243Z,17.50
2019-04-24T02:56:35.487Z,17.43
2019-04-24T02:57:31.099Z,17.46
2019-04-24T03:01:34.440Z,17.46
2019-04-24T03:02:53.944Z,17.41
2019-04-24T03:03:34.001Z,17.25
2019-04-24T03:05:40.385Z,16.71
2019-04-24T03:06:42.778Z,16.63
2019-04-24T03:09:31.285Z,16.55
2019-04-24T03:14:39.891Z,16.49
2019-04-24T03:15:33.904Z,16.65
2019-04-24T03:17:13.554Z,16.58
2019-04-24T03:17:38.279Z,16.65
2019-04-24T03:18:50.798Z,16.93
2019-04-24T03:19:44.216Z,17.06
2019-04-24T03:20:55.079Z,17.11
2019-04-24T03:22:01.858Z,17.13
2019-04-24T03:23:33.887Z,16.90
2019-04-24T03:27:56.283Z,16.34
2019-04-24T03:28:50.355Z,16.18
2019-04-24T03:29:41.287Z,16.00
2019-04-24T03:31:03.103Z,15.94
2019-04-24T03:32:06.021Z,15.94
2019-04-24T03:33:41.726Z,15.76
2019-04-24T03:36:14.165Z,15.82
2019-04-24T03:36:55.210Z,15.72
2019-04-24T03:40:08.490Z,15.74
2019-04-24T03:41:17.795Z,15.60
2019-04-24T03:43:12.062Z,15.54
2019-04-24T03:47:56.760Z,15.33
2019-04-24T03:49:45.861Z,15.38
2019-04-24T03:54:49.069Z,15.35
2019-04-24T03:56:30.730Z,15.28
2019-04-24T04:00:03.150Z,15.17
2019-04-24T04:00:44.651Z,15.11
2019-04-24T04:01:45.078Z,15.26
2019-04-24T04:03:30.475Z,15.38
2019-04-24T04:07:31.071Z,15.49
2019-04-24T04:08:56.002Z,15.48
2019-04-24T04:09:44.009Z,15.52
2019-04-24T04:10:32.915Z,15.56
2019-04-24T04:15:26.391Z,15.67
2019-04-24T04:16:50.064Z,15.68
2019-04-24T04:17:55.668Z,15.68
2019-04-24T04:20:41.031Z,15.96
2019-04-24T04:21:37.663Z,15.82
2019-04-24T04:23:58.419Z,15.68
2019-04-24T04:25:57.918Z,15.59
2019-04-24T04:26:45.780Z,15.57
2019-04-24T04:28:50.011Z,15.70
2019-04-24T04:29:41.184Z,15.75
2019-04-24T04:30:50.887Z,15.81
2019-04-24T04:31:36.223Z,15.82
2019-04-24T04:32:47.216Z,15.85
2019-04-24T04:33:58.449Z,15.84
2019-04-24T04:34:41.838Z,15.86
2019-04-24T04:35:32.951Z,15.97
2019-04-24T04:36:46.255Z,15.99
2019-04-24T04:37:28.661Z,16.01
2019-04-24T04:39:42.630Z,16.26
2019-04-24T04:40:46.144Z,16.30
2019-04-24T04:43:48.961Z,16.90
2019-04-24T04:45:58.514Z,16.96
2019-04-24T04:47:03.711Z,16.95
2019-04-24T04:48:46.962Z,17.07
2019-04-24T04:49:51.002Z,17.10
2019-04-24T04:51:38.060Z,17.06
2019-04-24T04:53:03.312Z,17.13
2019-04-24T04:56:45.953Z,16.89
2019-04-24T04:57:47.630Z,16.83
2019-04-24T04:58:42.269Z,16.73
2019-04-24T04:59:43.062Z,16.59
2019-04-24T05:00:49.124Z,16.65
2019-04-24T05:03:01.055Z,16.71
2019-04-24T05:03:39.705Z,16.67
2019-04-24T05:04:44.942Z,16.63
2019-04-24T05:06:04.455Z,16.68
2019-04-24T05:06:50.894Z,16.60
2019-04-24T05:09:50.251Z,16.33
2019-04-24T05:14:10.627Z,15.94
2019-04-24T05:15:28.303Z,15.76
2019-04-24T05:16:52.973Z,15.74
2019-04-24T05:18:53.997Z,15.68
2019-04-24T05:19:33.034Z,15.59
2019-04-24T05:20:42.904Z,15.67
2019-04-24T05:21:50.621Z,15.60
2019-04-24T05:22:25.945Z,15.61
2019-04-24T05:24:32.880Z,15.45
2019-04-24T05:25:57.005Z,15.43
2019-04-24T05:28:50.935Z,15.33
2019-04-24T05:29:45.252Z,15.19
2019-04-24T05:30:32.837Z,15.15
2019-04-24T05:31:40.227Z,15.15
2019-04-24T05:32:49.155Z,15.12
2019-04-24T05:33:34.952Z,15.11
2019-04-24T05:35:44.053Z,15.21
2019-04-24T05:36:34.295Z,15.11
2019-04-24T05:37:50.004Z,15.19
2019-04-24T05:38:45.097Z,15.06
2019-04-24T05:40:37.302Z,15.15
2019-04-24T05:43:42.845Z,15.17
2019-04-24T05:44:39.048Z,15.24
2019-04-24T05:47:45.693Z,15.43
2019-04-24T05:49:48.986Z,15.42
2019-04-24T05:51:36.342Z,15.48
2019-04-24T05:51:39.609Z,15.41
2019-04-24T05:52:44.355Z,15.48
2019-04-24T05:53:38.066Z,15.52
2019-04-24T05:54:31.759Z,15.60
2019-04-24T05:55:48.488Z,15.79
2019-04-24T05:56:52.858Z,15.99
2019-04-24T05:59:50.069Z,16.27
2019-04-24T06:00:45.427Z,16.37
2019-04-24T06:02:04.173Z,16.40
2019-04-24T06:03:59.188Z,16.44
2019-04-24T06:04:46.295Z,16.55
2019-04-24T06:05:46.851Z,16.60
2019-04-24T06:08:02.598Z,16.88
2019-04-24T06:12:52.192Z,17.18
2019-04-24T06:13:42.127Z,17.28
2019-04-24T06:14:37.996Z,17.35
2019-04-24T06:15:48.558Z,17.44
2019-04-24T06:16:49.131Z,17.55
2019-04-24T06:17:45.976Z,17.69
2019-04-24T06:18:48.023Z,17.71
2019-04-24T06:21:29.735Z,18.00
2019-04-24T06:22:44.846Z,18.04
2019-04-24T06:27:42.439Z,18.67
2019-04-24T06:29:14.669Z,18.87
2019-04-24T06:30:52.122Z,19.06
2019-04-24T06:32:09.982Z,19.24
2019-04-24T06:33:49.664Z,19.36
2019-04-24T06:34:49.779Z,19.33
2019-04-24T06:35:54.390Z,19.43
2019-04-24T06:37:01.075Z,19.39
2019-04-24T06:37:40.600Z,19.40
2019-04-24T06:38:48.022Z,19.40
2019-04-24T06:39:39.885Z,19.32
2019-04-24T06:41:43.632Z,19.25
2019-04-24T06:42:43.827Z,19.33
2019-04-24T06:43:34.562Z,19.66
2019-04-24T06:44:57.803Z,20.27
2019-04-24T06:45:36.895Z,21.05
2019-04-24T06:48:35.244Z,23.12
2019-04-24T06:49:22.401Z,23.50
2019-04-24T06:51:52.319Z,23.62
2019-04-24T06:52:46.516Z,23.95
2019-04-24T06:56:53.745Z,23.22
2019-04-24T07:00:42.099Z,24.38
2019-04-24T07:01:35.531Z,24.82
2019-04-24T07:03:59.377Z,25.54
2019-04-24T07:08:46.351Z,24.94
2019-04-24T07:09:45.631Z,24.85
2019-04-24T07:12:35.191Z,24.53
2019-04-24T07:13:55.328Z,24.05
2019-04-24T07:14:34.121Z,23.79
2019-04-24T07:15:48.122Z,23.77
2019-04-24T07:17:59.374Z,23.35
2019-04-24T07:19:45.410Z,22.80
2019-04-24T07:21:48.809Z,22.65
2019-04-24T07:22:34.111Z,22.25
2019-04-24T07:23:40.903Z,22.01
2019-04-24T07:24:46.612Z,21.81
2019-04-24T07:25:56.033Z,22.17
2019-04-24T07:26:38.045Z,22.52
2019-04-24T07:27:50.551Z,22.10
2019-04-24T07:29:45.409Z,21.76
2019-04-24T07:30:47.449Z,21.81
2019-04-24T07:31:50.650Z,21.91
2019-04-24T07:34:44.321Z,21.48
2019-04-24T07:35:51.730Z,20.66
2019-04-24T07:36:45.270Z,20.53
2019-04-24T07:38:33.026Z,21.29
2019-04-24T07:39:47.286Z,21.29
2019-04-24T07:40:51.566Z,21.11
2019-04-24T07:41:54.098Z,21.11
2019-04-24T07:42:35.631Z,21.20
2019-04-24T07:43:40.138Z,21.06
2019-04-24T07:44:39.030Z,21.05
2019-04-24T07:45:40.337Z,21.56
2019-04-24T07:47:33.082Z,22.32
2019-04-24T07:49:52.974Z,23.45
2019-04-24T07:50:51.337Z,23.90
2019-04-24T07:51:47.625Z,23.57
2019-04-24T07:52:55.168Z,23.68
2019-04-24T07:54:01.488Z,23.62
2019-04-24T07:54:54.016Z,23.71
2019-04-24T07:55:46.591Z,23.68
2019-04-24T07:57:38.689Z,23.83
2019-04-24T07:58:53.064Z,23.97
2019-04-24T08:00:40.440Z,24.91
2019-04-24T08:01:48.107Z,25.30
2019-04-24T08:02:46.057Z,25.27
2019-04-24T08:03:57.402Z,25.46
2019-04-24T08:05:37.248Z,24.83
2019-04-24T08:06:56.042Z,24.22
2019-04-24T08:08:53.596Z,24.52
2019-04-24T08:10:41.312Z,25.16
2019-04-24T08:11:47.749Z,25.64
2019-04-24T08:12:35.218Z,25.86
2019-04-24T08:13:37.223Z,25.91
2019-04-24T08:15:03.382Z,26.29
2019-04-24T08:16:43.407Z,27.06
2019-04-24T08:17:45.801Z,27.47
2019-04-24T08:21:40.213Z,25.64
2019-04-24T08:22:46.329Z,24.22
2019-04-24T08:25:41.885Z,23.42
2019-04-24T08:26:40.261Z,23.82
2019-04-24T08:27:51.910Z,23.60
2019-04-24T08:28:46.224Z,23.62
2019-04-24T08:29:49.023Z,23.72
2019-04-24T08:33:01.971Z,23.79
2019-04-24T08:36:44.708Z,22.94
2019-04-24T08:38:59.145Z,22.92
2019-04-24T08:40:50.390Z,22.87
2019-04-24T08:42:51.911Z,23.43
2019-04-24T08:43:44.144Z,23.09
2019-04-24T08:44:56.844Z,22.93
2019-04-24T08:45:37.639Z,23.11
2019-04-24T08:46:51.634Z,22.64
2019-04-24T08:47:55.472Z,22.92
2019-04-24T08:49:01.641Z,23.19
2019-04-24T08:51:53.404Z,23.26
2019-04-24T08:53:50.424Z,23.43
2019-04-24T08:54:49.724Z,23.92
2019-04-24T08:55:41.404Z,24.01
2019-04-24T08:56:43.477Z,24.32
2019-04-24T08:58:42.240Z,23.71
2019-04-24T09:01:48.600Z,23.07
2019-04-24T09:03:49.939Z,22.97
2019-04-24T09:05:55.021Z,23.71
2019-04-24T09:06:44.546Z,23.64
2019-04-24T09:08:48.038Z,23.04
2019-04-24T09:10:18.302Z,23.22
2019-04-24T09:11:46.469Z,23.67
2019-04-24T09:14:53.311Z,23.22
2019-04-24T09:15:59.524Z,23.27
2019-04-24T09:16:44.726Z,23.08
2019-04-24T09:17:52.339Z,23.11
2019-04-24T09:18:52.701Z,22.84
2019-04-24T09:20:07.787Z,22.77
2019-04-24T09:20:49.191Z,22.89
2019-04-24T09:21:42.894Z,22.83
2019-04-24T09:22:41.869Z,22.82
2019-04-24T09:24:10.603Z,22.80
2019-04-24T09:26:19.107Z,23.04
2019-04-24T09:27:48.943Z,22.77
2019-04-24T09:30:44.984Z,22.75
2019-04-24T09:32:50.681Z,23.07
2019-04-24T09:34:50.980Z,23.09
2019-04-24T09:36:10.907Z,23.24
2019-04-24T09:37:51.186Z,23.24
2019-04-24T09:40:04.785Z,22.47
2019-04-24T09:40:59.902Z,22.39
2019-04-24T09:42:05.678Z,22.62
2019-04-24T09:43:58.426Z,22.68
2019-04-24T09:44:54.026Z,22.43
2019-04-24T09:45:50.745Z,22.44
2019-04-24T09:46:57.099Z,22.39
2019-04-24T09:47:57.043Z,22.14
2019-04-24T09:48:57.523Z,22.29
2019-04-24T09:49:51.037Z,22.16
2019-04-24T09:50:51.135Z,22.06
2019-04-24T09:51:44.723Z,22.37
2019-04-24T09:53:12.950Z,22.39
2019-04-24T09:53:54.906Z,22.35
2019-04-24T09:54:53.186Z,22.35
2019-04-24T09:55:48.643Z,22.54
2019-04-24T09:57:51.051Z,22.72
2019-04-24T09:58:52.527Z,22.64
2019-04-24T09:59:43.776Z,22.60
2019-04-24T10:01:17.372Z,22.68
2019-04-24T10:02:48.971Z,22.75
2019-04-24T10:07:05.525Z,22.68
2019-04-24T10:07:50.856Z,22.65
2019-04-24T10:08:50.229Z,22.64
2019-04-24T10:09:46.529Z,22.46
2019-04-24T10:10:43.110Z,22.64
2019-04-24T10:12:47.221Z,22.96
2019-04-24T10:14:47.092Z,22.68
2019-04-24T10:15:47.867Z,22.65
2019-04-24T10:17:02.387Z,22.65
2019-04-24T10:17:51.512Z,22.29
2019-04-24T10:19:04.012Z,22.57
2019-04-24T10:20:07.550Z,22.78
2019-04-24T10:20:38.243Z,22.67
2019-04-24T10:21:46.490Z,22.57
2019-04-24T10:22:53.208Z,22.44
2019-04-24T10:23:48.634Z,22.43
2019-04-24T10:25:38.452Z,22.10
2019-04-24T10:27:55.444Z,22.20
2019-04-24T10:29:11.568Z,22.04
2019-04-24T10:29:41.772Z,21.82
2019-04-24T10:32:01.376Z,22.35
2019-04-24T10:33:55.794Z,22.54
2019-04-24T10:34:45.633Z,22.54
2019-04-24T10:35:43.576Z,22.34
2019-04-24T10:38:42.805Z,21.72
2019-04-24T10:40:07.231Z,21.82
2019-04-24T10:40:48.659Z,22.06
2019-04-24T10:41:58.681Z,22.02
2019-04-24T10:42:48.746Z,21.90
2019-04-24T10:43:46.272Z,22.12
2019-04-24T10:45:46.012Z,22.10
2019-04-24T10:48:44.588Z,21.95
2019-04-24T10:49:49.078Z,21.95
2019-04-24T10:51:57.711Z,22.01
2019-04-24T10:52:51.789Z,21.90
2019-04-24T10:54:54.177Z,21.35
2019-04-24T10:55:59.132Z,21.59
2019-04-24T10:56:44.621Z,21.78
2019-04-24T10:57:56.942Z,21.97
2019-04-24T11:00:59.414Z,22.12
2019-04-24T11:02:09.797Z,22.16
2019-04-24T11:02:49.168Z,22.29
2019-04-24T11:03:57.580Z,22.12
2019-04-24T11:08:54.366Z,22.28
2019-04-24T11:10:17.657Z,22.04
2019-04-24T11:10:47.586Z,21.92
2019-04-24T11:12:09.641Z,21.98
2019-04-24T11:13:06.402Z,21.91
2019-04-24T11:13:53.327Z,21.88
2019-04-24T11:14:49.965Z,21.97
2019-04-24T11:17:00.166Z,22.14
2019-04-24T11:19:08.353Z,21.45
2019-04-24T11:21:07.298Z,21.57
2019-04-24T11:22:58.058Z,21.59
2019-04-24T11:23:54.527Z,21.53
2019-04-24T11:24:56.765Z,21.60
2019-04-24T11:26:58.297Z,21.75
2019-04-24T11:27:55.434Z,21.74
2019-04-24T11:30:51.785Z,21.75
2019-04-24T11:31:50.345Z,21.76
2019-04-24T11:34:09.796Z,21.57
2019-04-24T11:35:09.970Z,21.67
2019-04-24T11:35:43.599Z,21.51
2019-04-24T11:37:01.968Z,21.36
2019-04-24T11:39:04.356Z,21.27
2019-04-24T11:40:19.039Z,21.41
2019-04-24T11:40:46.402Z,21.39
2019-04-24T11:42:04.799Z,21.30
2019-04-24T11:42:48.900Z,21.46
2019-04-24T11:44:03.905Z,21.48
2019-04-24T11:44:54.411Z,21.48
2019-04-24T11:45:48.010Z,21.69
2019-04-24T11:48:08.545Z,21.63
2019-04-24T11:48:59.845Z,21.81
2019-04-24T11:49:55.236Z,21.78
2019-04-24T11:52:14.522Z,21.50
2019-04-24T11:53:05.169Z,21.51
2019-04-24T11:55:09.583Z,21.53
2019-04-24T11:55:49.640Z,21.67
2019-04-24T11:57:02.491Z,21.64
2019-04-24T11:58:03.123Z,21.69
2019-04-24T11:59:31.880Z,21.98
2019-04-24T12:00:40.999Z,21.97
2019-04-24T12:01:55.787Z,22.25
2019-04-24T12:02:47.936Z,22.43
2019-04-24T12:03:52.168Z,22.50
2019-04-24T12:05:00.704Z,22.65
2019-04-24T12:05:48.069Z,22.60
2019-04-24T12:07:04.345Z,22.69
2019-04-24T12:08:54.556Z,22.87
2019-04-24T12:09:52.745Z,22.84
2019-04-24T12:10:57.375Z,23.05
2019-04-24T12:12:57.108Z,23.04
2019-04-24T12:14:47.670Z,23.09
2019-04-24T12:15:58.362Z,23.09
2019-04-24T12:16:50.092Z,22.96
2019-04-24T12:17:51.229Z,22.90
2019-04-24T12:18:52.081Z,22.93
2019-04-24T12:19:58.663Z,22.77
2019-04-24T12:21:01.203Z,22.62
2019-04-24T12:21:54.145Z,22.44
2019-04-24T12:24:01.748Z,22.46
2019-04-24T12:24:49.722Z,22.27
2019-04-24T12:26:40.973Z,21.95
2019-04-24T12:27:53.912Z,21.98
2019-04-24T12:28:53.970Z,22.06
2019-04-24T12:29:48.667Z,21.98
2019-04-24T12:30:52.774Z,21.99
2019-04-24T12:31:52.880Z,22.06
2019-04-24T12:33:56.689Z,22.22
2019-04-24T12:34:57.073Z,22.34
2019-04-24T12:35:34.486Z,22.41
2019-04-24T12:37:00.566Z,22.60
2019-04-24T12:37:57.871Z,22.59
2019-04-24T12:39:50.885Z,22.86
2019-04-24T12:40:48.364Z,22.97
2019-04-24T12:42:02.032Z,22.97
2019-04-24T12:42:51.140Z,22.93
2019-04-24T12:43:53.854Z,23.14
2019-04-24T12:47:46.265Z,23.67
2019-04-24T12:48:55.360Z,23.77
2019-04-24T12:50:51.172Z,24.04
2019-04-24T12:51:49.126Z,24.10
2019-04-24T12:52:57.376Z,24.14
2019-04-24T12:53:56.602Z,24.20
2019-04-24T12:54:54.833Z,24.49
2019-04-24T12:57:07.401Z,24.87
2019-04-24T12:57:59.911Z,25.07
2019-04-24T12:58:58.408Z,25.27
2019-04-24T13:01:11.152Z,24.32
2019-04-24T13:01:50.674Z,24.24
2019-04-24T13:04:03.395Z,23.01
2019-04-24T13:04:56.610Z,23.43
2019-04-24T13:06:49.839Z,23.90
2019-04-24T13:09:57.800Z,23.64
2019-04-24T13:11:02.499Z,23.89
2019-04-24T13:11:59.580Z,23.79
2019-04-24T13:13:25.135Z,23.47
2019-04-24T13:14:14.932Z,23.42
2019-04-24T13:15:11.881Z,23.07
2019-04-24T13:15:53.969Z,22.99
2019-04-24T13:17:10.414Z,23.12
2019-04-24T13:19:09.191Z,23.20
2019-04-24T13:20:30.105Z,23.58
2019-04-24T13:21:31.728Z,23.49
2019-04-24T13:22:36.214Z,23.39
2019-04-24T13:23:43.278Z,23.45
2019-04-24T13:24:41.756Z,23.55
2019-04-24T13:25:56.285Z,23.72
2019-04-24T13:27:06.926Z,23.82
2019-04-24T13:28:12.684Z,23.90
2019-04-24T13:30:10.691Z,24.10
2019-04-24T13:31:08.863Z,24.05
2019-04-24T13:31:56.537Z,23.97
2019-04-24T13:33:05.264Z,23.65
2019-04-24T13:33:54.735Z,22.99
2019-04-24T13:35:01.847Z,22.80
2019-04-24T13:36:06.759Z,22.69
2019-04-24T13:38:08.356Z,22.43
2019-04-24T13:38:54.778Z,22.49
2019-04-24T13:39:52.707Z,22.52
2019-04-24T13:42:11.177Z,22.16
2019-04-24T13:44:06.028Z,22.13
2019-04-24T13:45:02.687Z,22.28
2019-04-24T13:46:00.566Z,22.20
2019-04-24T13:47:00.363Z,22.41
2019-04-24T13:48:07.097Z,22.34
2019-04-24T13:48:57.744Z,22.22
2019-04-24T13:50:53.369Z,22.43
2019-04-24T13:52:16.908Z,22.60
2019-04-24T13:54:07.903Z,22.78
2019-04-24T13:55:14.443Z,22.68
2019-04-24T13:55:56.812Z,22.83
2019-04-24T14:00:01.996Z,22.96
2019-04-24T14:01:08.722Z,22.50
2019-04-24T14:01:55.907Z,22.31
2019-04-24T14:05:02.376Z,22.27
2019-04-24T14:07:04.294Z,22.38
2019-04-24T14:08:12.269Z,22.44
2019-04-24T14:09:11.148Z,22.53
2019-04-24T14:10:26.135Z,22.57
2019-04-24T14:12:46.140Z,22.68
2019-04-24T14:13:00.352Z,22.62
2019-04-24T14:16:12.959Z,21.97
2019-04-24T14:16:56.266Z,22.01
2019-04-24T14:18:13.908Z,21.98
2019-04-24T14:20:59.773Z,22.35
2019-04-24T14:22:04.483Z,22.47
2019-04-24T14:23:08.034Z,22.43
2019-04-24T14:26:02.622Z,22.44
2019-04-24T14:27:08.814Z,22.41
2019-04-24T14:28:19.824Z,22.38
2019-04-24T14:28:56.926Z,22.43
2019-04-24T14:30:00.741Z,22.46
2019-04-24T14:34:01.923Z,21.81
2019-04-24T14:35:06.039Z,21.53
2019-04-24T14:36:09.829Z,21.14
2019-04-24T14:39:09.730Z,20.98
2019-04-24T14:40:09.055Z,20.95
2019-04-24T14:41:01.423Z,20.66
2019-04-24T14:42:13.069Z,20.25
2019-04-24T14:44:12.573Z,20.08
2019-04-24T14:47:03.679Z,19.42
2019-04-24T14:47:56.523Z,19.50
2019-04-24T14:50:16.197Z,19.75
2019-04-24T14:50:52.815Z,19.94
2019-04-24T14:52:10.561Z,20.12
2019-04-24T14:52:57.004Z,20.49
2019-04-24T14:54:06.332Z,20.65
2019-04-24T14:55:12.561Z,20.72
2019-04-24T14:56:02.257Z,20.81
2019-04-24T14:57:01.598Z,20.90
2019-04-24T14:58:12.112Z,21.02
2019-04-24T14:59:17.673Z,21.04
2019-04-24T15:01:03.267Z,20.87
2019-04-24T15:02:10.919Z,20.91
2019-04-24T15:03:21.070Z,20.99
2019-04-24T15:03:59.620Z,20.95
2019-04-24T15:05:05.534Z,20.84
2019-04-24T15:06:13.572Z,20.90
2019-04-24T15:07:04.457Z,20.90
2019-04-24T15:09:11.840Z,20.93
2019-04-24T15:10:07.792Z,20.84
2019-04-24T15:10:58.490Z,20.89
2019-04-24T15:12:19.243Z,20.62
2019-04-24T15:15:08.946Z,20.96
2019-04-24T15:16:30.625Z,20.90
2019-04-24T15:18:08.594Z,21.19
2019-04-24T15:19:13.979Z,21.21
2019-04-24T15:20:09.811Z,21.59
2019-04-24T15:21:03.424Z,22.07
2019-04-24T15:22:10.840Z,22.71
2019-04-24T15:23:07.472Z,22.65
2019-04-24T15:27:10.419Z,21.51
2019-04-24T15:28:10.574Z,21.13
2019-04-24T15:30:55.736Z,21.01
2019-04-24T15:32:06.529Z,21.26
2019-04-24T15:33:03.523Z,21.30
2019-04-24T15:35:15.377Z,21.97
2019-04-24T15:36:14.384Z,21.82
2019-04-24T15:37:15.861Z,21.81
2019-04-24T15:38:03.977Z,21.59
2019-04-24T15:39:05.792Z,21.46
2019-04-24T15:42:02.294Z,21.06
2019-04-24T15:43:58.210Z,20.77
2019-04-24T15:45:02.032Z,20.65
2019-04-24T15:47:24.326Z,20.47
2019-04-24T15:48:30.777Z,20.38
2019-04-24T15:49:09.066Z,20.27
2019-04-24T15:51:23.055Z,20.03
2019-04-24T15:51:35.284Z,20.10
2019-04-24T15:52:32.935Z,19.94
2019-04-24T15:53:33.006Z,20.06
2019-04-24T15:54:33.035Z,20.34
2019-04-24T15:55:33.083Z,20.64
2019-04-24T15:56:33.139Z,20.69
2019-04-24T15:57:33.861Z,20.59
2019-04-24T15:58:43.828Z,20.54
2019-04-24T16:00:13.072Z,20.54
2019-04-24T16:01:05.228Z,20.16
2019-04-24T16:02:04.432Z,19.91
2019-04-24T16:03:13.024Z,19.94
2019-04-24T16:04:18.252Z,19.75
2019-04-24T16:04:54.027Z,19.68
2019-04-24T16:05:33.678Z,19.53
2019-04-24T16:06:33.644Z,19.47
2019-04-24T16:07:33.696Z,19.43
2019-04-24T16:08:33.771Z,19.42
2019-04-24T16:09:33.836Z,19.43
2019-04-24T16:10:33.848Z,19.39
2019-04-24T16:11:33.908Z,19.33
2019-04-24T16:12:34.001Z,19.46
2019-04-24T16:13:39.353Z,19.53
2019-04-24T16:14:58.185Z,19.58
2019-04-24T16:16:40.003Z,19.68
2019-04-24T16:17:08.042Z,19.80
2019-04-24T16:20:12.162Z,19.97
2019-04-24T16:21:07.122Z,19.97
2019-04-24T16:22:00.083Z,19.88
2019-04-24T16:22:59.675Z,19.87
2019-04-24T16:24:29.587Z,20.00
2019-04-24T16:25:05.447Z,20.05
2019-04-24T16:25:58.761Z,19.88
2019-04-24T16:27:22.166Z,19.87
2019-04-24T16:28:11.348Z,19.83
2019-04-24T16:29:17.759Z,19.87
2019-04-24T16:30:05.120Z,19.84
2019-04-24T16:31:05.018Z,19.84
2019-04-24T16:34:03.562Z,19.68
2019-04-24T16:35:05.530Z,19.66
2019-04-24T16:36:14.471Z,19.68
2019-04-24T16:37:43.048Z,19.51
2019-04-24T16:38:14.624Z,19.50
2019-04-24T16:39:06.525Z,19.53
2019-04-24T16:42:20.248Z,19.53
2019-04-24T16:43:12.935Z,19.39
2019-04-24T16:44:12.467Z,19.32
2019-04-24T16:46:40.486Z,19.14
2019-04-24T16:47:00.743Z,18.92
2019-04-24T16:48:26.384Z,18.80
2019-04-24T16:49:04.800Z,18.87
2019-04-24T16:50:29.666Z,18.84
2019-04-24T16:52:09.429Z,18.94
2019-04-24T16:53:12.494Z,19.11
2019-04-24T16:55:10.117Z,19.36
2019-04-24T16:56:09.916Z,19.38
2019-04-24T16:57:01.766Z,19.73
2019-04-24T17:00:12.657Z,19.73
2019-04-24T17:02:05.206Z,20.20
2019-04-24T17:03:12.707Z,20.09
2019-04-24T17:04:19.934Z,20.08
2019-04-24T17:05:10.596Z,20.06
2019-04-24T17:06:20.832Z,20.09
2019-04-24T17:07:16.713Z,19.98
2019-04-24T17:10:10.982Z,19.91
2019-04-24T17:14:22.389Z,19.83
2019-04-24T17:16:13.411Z,19.42
2019-04-24T17:17:29.791Z,19.55
2019-04-24T17:18:31.427Z,19.53
2019-04-24T17:22:09.667Z,18.95
2019-04-24T17:24:07.481Z,18.55
2019-04-24T17:25:13.701Z,18.43
2019-04-24T17:28:08.515Z,18.47
2019-04-24T17:29:22.618Z,18.47
2019-04-24T17:30:23.500Z,18.67
2019-04-24T17:32:14.789Z,19.05
2019-04-24T17:34:09.749Z,19.50
2019-04-24T17:35:18.073Z,19.63
2019-04-24T17:36:11.354Z,19.61
2019-04-24T17:36:38.338Z,19.33
2019-04-24T17:37:38.329Z,19.38
2019-04-24T17:38:38.308Z,19.24
2019-04-24T17:39:38.354Z,19.43
2019-04-24T17:40:38.921Z,19.25
2019-04-24T17:41:44.962Z,19.28
2019-04-24T17:42:52.526Z,19.46
2019-04-24T17:44:13.412Z,19.78
2019-04-24T17:45:05.753Z,19.86
2019-04-24T17:46:15.087Z,19.70
2019-04-24T17:47:12.951Z,19.69
2019-04-24T17:48:07.335Z,19.20
2019-04-24T17:49:11.074Z,18.76
2019-04-24T17:50:16.586Z,18.47
2019-04-24T17:51:15.394Z,18.27
2019-04-24T17:52:25.486Z,18.02
2019-04-24T17:53:16.669Z,17.84
2019-04-24T17:55:04.679Z,17.41
2019-04-24T17:57:04.952Z,17.11
2019-04-24T17:58:39.313Z,16.78
2019-04-24T17:59:39.364Z,16.59
2019-04-24T18:00:39.411Z,16.44
2019-04-24T18:01:39.473Z,16.26
2019-04-24T18:02:39.551Z,16.09
2019-04-24T18:03:39.569Z,16.07
2019-04-24T18:04:39.624Z,15.76
2019-04-24T18:05:39.740Z,15.82
2019-04-24T18:06:39.737Z,15.60
2019-04-24T18:07:41.388Z,15.56
2019-04-24T18:08:39.816Z,15.48
2019-04-24T18:09:39.863Z,15.43
2019-04-24T18:10:41.568Z,15.35
2019-04-24T18:11:39.985Z,15.26
2019-04-24T18:12:41.668Z,15.26
2019-04-24T18:13:40.059Z,15.13
2019-04-24T18:14:40.717Z,15.15
2019-04-24T18:15:40.160Z,15.08
2019-04-24T18:16:40.213Z,15.08
2019-04-24T18:17:42.090Z,15.09
2019-04-24T18:18:41.131Z,14.95
2019-04-24T18:19:41.956Z,14.93
2019-04-24T18:20:40.420Z,14.98
2019-04-24T18:21:41.538Z,14.81
2019-04-24T18:22:41.056Z,14.68
2019-04-24T18:23:41.941Z,14.67
2019-04-24T18:24:41.943Z,14.60
2019-04-24T18:25:41.286Z,14.47
2019-04-24T18:26:41.959Z,14.38
2019-04-24T18:27:42.018Z,14.35
2019-04-24T18:28:41.776Z,14.35
2019-04-24T18:29:42.261Z,14.24
2019-04-24T18:30:42.437Z,14.29
2019-04-24T18:31:42.128Z,14.16
2019-04-24T18:32:41.961Z,14.25
2019-04-24T18:33:42.073Z,14.20
2019-04-24T18:34:41.455Z,14.27
2019-04-24T18:35:42.447Z,14.16
2019-04-24T18:36:41.349Z,14.01
2019-04-24T18:37:42.704Z,13.87
2019-04-24T18:38:42.055Z,13.89
2019-04-24T18:39:42.100Z,13.91
2019-04-24T18:40:41.479Z,13.80
2019-04-24T18:41:41.429Z,13.69
2019-04-24T18:42:41.496Z,13.63
2019-04-24T18:43:42.004Z,13.65
2019-04-24T18:44:41.633Z,13.63